Terminal Aerodrome Forecast
Issued by NWS

Home | Current Version | Previous Version | Text Only | Print | Product List | Glossary On
Versions: 1 2 3 4 5 6 7 8 9 10 11 12
000
FTUS45 KRIW 252333
TAFCOD
TAF
KCOD 252333Z 2600/2624 05008KT P6SM SCT100
     FM260300 01010G16KT P6SM SKC
     FM260800 VRB06KT P6SM SKC
     FM261500 01009KT P6SM SKC
     FM262200 VRB10G16KT P6SM VCSH SCT090 BKN150
      AMD LTD TO CLD VIS AND WIND=

USA.gov is the U.S. government's official web portal to all federal, state and local government web resources and services.